Time;durP1;ratioP1;P1;durP2;ratioP2;P2;SDS_P1;SDS_P2;PMS_P1;PMS_P2;Temp;Humidity;BMP_temperature;BMP_pressure;BME280_temperature;BME280_humidity;BME280_pressure;Samples;Min_cycle;Max_cycle;Signal;HPM_P1;HPM_P2
2021/04/22 00:00:22;;;;;;;19.10;12.73;;;;;;;9.44;100.00;101102.36;1795295;80;21157;-57
2021/04/22 00:02:50;;;;;;;23.15;13.65;;;;;;;9.41;100.00;101111.80;1765072;81;21253;-56
2021/04/22 00:05:30;;;;;;;22.65;13.83;;;;;;;9.41;100.00;101113.14;1765066;81;21156;-56
2021/04/22 00:07:58;;;;;;;21.60;13.35;;;;;;;9.41;100.00;101118.94;1765047;81;21074;-57
2021/04/22 00:10:32;;;;;;;23.30;12.85;;;;;;;9.41;100.00;101119.83;1765103;81;21441;-57
2021/04/22 00:12:59;;;;;;;22.87;13.35;;;;;;;9.40;100.00;101120.75;1765019;81;21165;-56
2021/04/22 00:15:27;;;;;;;21.20;13.88;;;;;;;9.38;100.00;101111.85;1765127;81;21146;-56
2021/04/22 00:17:56;;;;;;;23.55;13.58;;;;;;;9.38;100.00;101109.65;1765003;81;21122;-57
2021/04/22 00:20:25;;;;;;;20.08;11.85;;;;;;;9.37;100.00;101110.09;1765074;81;21075;-56
2021/04/22 00:22:53;;;;;;;23.83;14.07;;;;;;;9.36;100.00;101112.35;1765095;81;23422;-56
2021/04/22 00:25:21;;;;;;;20.88;12.45;;;;;;;9.36;100.00;101116.36;1757974;81;21138;-56
2021/04/22 00:27:49;;;;;;;22.30;13.70;;;;;;;9.34;100.00;101122.22;1751395;82;21203;-56
2021/04/22 00:30:19;;;;;;;20.92;14.10;;;;;;;9.33;100.00;101119.12;1751489;82;21071;-58
2021/04/22 00:32:48;;;;;;;23.73;14.07;;;;;;;9.33;100.00;101120.45;1751515;81;21079;-57
2021/04/22 00:35:17;;;;;;;20.65;13.05;;;;;;;9.31;100.00;101123.62;1751437;81;21360;-57
2021/04/22 00:37:45;;;;;;;22.58;13.38;;;;;;;9.28;100.00;101126.38;1751483;82;21063;-56
2021/04/22 00:40:25;;;;;;;20.23;12.85;;;;;;;9.25;100.00;101125.13;1751469;82;21117;-56
2021/04/22 00:42:52;;;;;;;21.68;14.53;;;;;;;9.23;100.00;101125.62;1751563;82;21560;-57
2021/04/22 00:45:20;;;;;;;24.00;13.70;;;;;;;9.23;100.00;101132.30;1751539;81;21150;-57
2021/04/22 00:47:47;;;;;;;24.50;15.48;;;;;;;9.23;100.00;101136.32;1751470;82;21282;-57
2021/04/22 00:50:20;;;;;;;28.45;16.17;;;;;;;9.20;100.00;101129.71;1751419;81;21111;-58
2021/04/22 00:52:47;;;;;;;24.82;14.90;;;;;;;9.14;100.00;101134.27;1751489;82;21059;-57
2021/04/22 00:55:16;;;;;;;33.85;16.90;;;;;;;9.08;100.00;101135.75;1751521;82;21083;-56
2021/04/22 00:57:45;;;;;;;27.82;16.40;;;;;;;9.04;100.00;101134.06;1763664;81;21069;-56
2021/04/22 01:00:16;;;;;;;29.72;17.15;;;;;;;9.03;100.00;101133.64;1769417;81;21691;-56
2021/04/22 01:02:43;;;;;;;30.02;16.60;;;;;;;9.04;100.00;101134.06;1769157;81;21134;-60
2021/04/22 01:05:14;;;;;;;26.20;15.85;;;;;;;9.07;100.00;101139.34;1769285;81;21114;-58
2021/04/22 01:07:43;;;;;;;24.40;15.40;;;;;;;9.09;100.00;101134.83;1769232;81;21113;-57
2021/04/22 01:10:13;;;;;;;26.27;15.80;;;;;;;9.09;100.00;101144.19;1769330;81;21118;-57
2021/04/22 01:12:41;;;;;;;25.82;15.15;;;;;;;9.06;100.00;101138.91;1769245;81;21211;-57
2021/04/22 01:15:12;;;;;;;25.60;15.45;;;;;;;9.06;100.00;101134.91;1769197;81;21192;-56
2021/04/22 01:17:40;;;;;;;23.45;14.25;;;;;;;9.06;100.00;101130.00;1769294;81;21125;-58
2021/04/22 01:20:22;;;;;;;24.55;15.10;;;;;;;9.08;100.00;101139.75;1769218;81;21090;-56
2021/04/22 01:22:54;;;;;;;21.97;14.00;;;;;;;9.07;100.00;101135.33;1768970;81;21180;-58
2021/04/22 01:25:25;;;;;;;24.80;15.55;;;;;;;9.09;100.00;101134.83;1769677;79;21372;-56
2021/04/22 01:27:53;;;;;;;23.22;15.30;;;;;;;9.08;100.00;101129.53;1792849;80;21152;-59
2021/04/22 01:30:45;;;;;;;27.98;16.02;;;;;;;9.08;100.00;101132.20;1764874;81;21130;-58
2021/04/22 01:33:15;;;;;;;25.12;15.18;;;;;;;9.09;100.00;101131.29;1792186;80;21105;-57
2021/04/22 01:35:47;;;;;;;27.58;17.05;;;;;;;9.12;100.00;101130.74;1764878;81;21145;-57
2021/04/22 01:38:15;;;;;;;25.40;16.10;;;;;;;9.16;100.00;101134.23;1792754;80;22273;-57
2021/04/22 01:40:42;;;;;;;24.23;15.85;;;;;;;9.17;100.00;101124.85;1792692;80;21109;-58
2021/04/22 01:43:10;;;;;;;25.55;15.30;;;;;;;9.21;100.00;101126.11;1792595;80;21113;-57
2021/04/22 01:45:38;;;;;;;29.70;16.80;;;;;;;9.22;100.00;101127.88;1792782;80;21022;-56
2021/04/22 01:48:07;;;;;;;28.83;16.02;;;;;;;9.21;100.00;101120.77;1792735;80;21018;-57
2021/04/22 01:50:36;;;;;;;28.52;17.45;;;;;;;9.20;100.00;101119.00;1792754;80;21423;-56
2021/04/22 01:53:05;;;;;;;28.30;17.67;;;;;;;9.17;100.00;101118.61;1792721;80;22219;-56
2021/04/22 01:55:37;;;;;;;27.00;17.57;;;;;;;9.13;100.00;101129.83;1792713;80;21109;-56
2021/04/22 01:58:06;;;;;;;27.35;18.20;;;;;;;9.12;100.00;101122.72;1764194;80;21076;-57
2021/04/22 02:00:40;;;;;;;30.17;19.15;;;;;;;9.12;100.00;101120.05;1779938;80;21492;-58
2021/04/22 02:03:09;;;;;;;29.67;18.05;;;;;;;9.14;100.00;101121.36;1740431;82;25533;-57
2021/04/22 02:05:37;;;;;;;31.33;17.87;;;;;;;9.15;100.00;101125.79;1740196;82;21063;-57
2021/04/22 02:08:06;;;;;;;28.65;17.90;;;;;;;9.13;100.00;101124.48;1740297;82;21091;-58
2021/04/22 02:10:35;;;;;;;28.57;18.05;;;;;;;9.11;100.00;101130.32;1740292;82;21214;-57
2021/04/22 02:13:04;;;;;;;32.25;18.65;;;;;;;9.11;100.00;101129.46;1740332;82;21138;-57
2021/04/22 02:15:31;;;;;;;30.20;18.62;;;;;;;9.10;100.00;101121.02;1740223;82;21453;-57
2021/04/22 02:17:59;;;;;;;29.70;17.23;;;;;;;9.08;100.00;101122.84;1740219;82;21183;-57
2021/04/22 02:20:27;;;;;;;29.37;18.25;;;;;;;9.08;100.00;101123.70;1740287;82;21143;-57
2021/04/22 02:22:54;;;;;;;28.27;17.45;;;;;;;9.07;100.00;101135.33;1740268;81;21055;-57
2021/04/22 02:25:24;;;;;;;28.00;17.25;;;;;;;9.03;100.00;101141.19;1753527;80;21062;-56
2021/04/22 02:27:52;;;;;;;26.12;16.17;;;;;;;8.99;100.00;101138.17;1814582;79;21364;-57
2021/04/22 02:30:27;;;;;;;25.32;15.43;;;;;;;8.93;100.00;101144.09;1814347;79;21180;-57
2021/04/22 02:32:55;;;;;;;28.55;17.05;;;;;;;8.81;100.00;101146.58;1814433;78;21047;-57
2021/04/22 02:35:27;;;;;;;27.07;15.55;;;;;;;8.74;100.00;101153.88;1814412;78;21114;-57
2021/04/22 02:37:55;;;;;;;24.75;15.75;;;;;;;8.72;100.00;101153.00;1814399;79;21090;-57
2021/04/22 02:40:26;;;;;;;28.27;16.40;;;;;;;8.72;100.00;101155.67;1814475;78;21345;-57
2021/04/22 02:42:53;;;;;;;23.77;14.90;;;;;;;8.74;100.00;101160.09;1814346;79;21153;-57
2021/04/22 02:45:26;;;;;;;26.37;15.03;;;;;;;8.73;100.00;101161.00;1814421;79;21095;-57
2021/04/22 02:47:54;;;;;;;27.98;16.02;;;;;;;8.74;100.00;101156.55;1814443;79;21138;-57
2021/04/22 02:50:24;;;;;;;22.95;14.23;;;;;;;8.73;100.00;101161.45;1814439;78;21149;-57
2021/04/22 02:52:51;;;;;;;24.05;14.90;;;;;;;8.73;100.00;101170.80;1814473;79;22249;-57
2021/04/22 02:55:19;;;;;;;21.73;13.58;;;;;;;8.70;100.00;101173.55;1814318;79;20990;-56
2021/04/22 02:57:48;;;;;;;19.55;12.73;;;;;;;8.70;100.00;101176.22;1794064;79;21493;-57
2021/04/22 03:00:19;;;;;;;23.30;14.07;;;;;;;8.69;100.00;101177.13;1791872;80;21237;-57
2021/04/22 03:02:48;;;;;;;21.00;12.98;;;;;;;8.69;100.00;101177.13;1791882;80;21527;-57
2021/04/22 03:05:17;;;;;;;22.52;13.50;;;;;;;8.69;100.00;101172.67;1791673;80;21367;-56
2021/04/22 03:07:45;;;;;;;24.15;13.05;;;;;;;8.70;100.00;101173.09;1791797;80;21075;-58
2021/04/22 03:10:16;;;;;;;19.37;11.85;;;;;;;8.74;100.00;101173.93;1791751;80;21007;-57
2021/04/22 03:12:43;;;;;;;21.70;12.73;;;;;;;8.79;100.00;101176.05;1791827;80;21122;-56
2021/04/22 03:15:12;;;;;;;25.75;15.38;;;;;;;8.83;100.00;101175.06;1791826;80;21106;-58
2021/04/22 03:17:39;;;;;;;23.67;15.75;;;;;;;8.89;100.00;101166.03;1791764;80;21197;-58
2021/04/22 03:20:09;;;;;;;29.90;16.67;;;;;;;8.97;100.00;101169.41;1791768;80;21070;-56
2021/04/22 03:22:36;;;;;;;28.80;17.10;;;;;;;9.04;100.00;101163.48;1791840;80;21070;-57
2021/04/22 03:25:06;;;;;;;31.57;17.57;;;;;;;9.08;100.00;101167.84;1791783;80;21105;-56
2021/04/22 03:27:34;;;;;;;30.05;16.42;;;;;;;9.11;100.00;101171.78;1791760;80;21160;-58
2021/04/22 03:30:01;;;;;;;28.15;16.95;;;;;;;9.17;100.00;101178.36;1791936;80;21454;-57
2021/04/22 03:32:29;;;;;;;32.03;16.60;;;;;;;9.19;100.00;101171.62;1791768;80;21149;-57
2021/04/22 03:34:56;;;;;;;27.20;16.23;;;;;;;9.21;100.00;101180.96;1791797;80;21179;-56
2021/04/22 03:37:25;;;;;;;27.90;16.67;;;;;;;9.22;100.00;101182.25;1791754;80;21098;-56
2021/04/22 03:39:52;;;;;;;42.03;17.98;;;;;;;9.24;100.00;101178.21;1791846;80;21153;-58
2021/04/22 03:42:20;;;;;;;29.30;16.32;;;;;;;9.27;100.00;101181.68;1791695;80;21761;-57
2021/04/22 03:44:48;;;;;;;34.20;17.70;;;;;;;9.31;100.00;101175.81;1791738;80;20987;-57
2021/04/22 03:47:16;;;;;;;26.80;15.15;;;;;;;9.35;100.00;101176.16;1791824;80;21097;-57
2021/04/22 03:49:44;;;;;;;33.28;17.05;;;;;;;9.41;100.00;101177.38;1791740;80;21078;-57
2021/04/22 03:52:12;;;;;;;36.75;16.17;;;;;;;9.46;100.00;101176.80;1791862;80;21129;-58
2021/04/22 03:54:41;;;;;;;29.63;15.25;;;;;;;9.54;100.00;101185.09;1791711;80;21165;-57
2021/04/22 03:57:09;;;;;;;23.50;14.38;;;;;;;9.61;100.00;101181.34;1799449;79;21063;-58
2021/04/22 03:59:36;;;;;;;31.10;15.58;;;;;;;9.64;100.00;101186.66;1787568;80;21030;-57
2021/04/22 04:02:04;;;;;;;34.23;15.32;;;;;;;9.66;100.00;101187.50;1795462;79;21470;-56
2021/04/22 04:04:32;;;;;;;27.05;16.32;;;;;;;9.72;100.00;101187.34;1809056;79;21118;-58
2021/04/22 04:07:00;;;;;;;26.85;15.20;;;;;;;9.76;100.00;101197.53;1809205;79;21661;-58
2021/04/22 04:09:27;;;;;;;24.40;15.30;;;;;;;9.80;100.00;101202.33;1809048;79;21051;-57
2021/04/22 04:11:55;;;;;;;23.52;15.30;;;;;;;9.85;100.00;101203.12;1809183;79;21043;-57
2021/04/22 04:14:22;;;;;;;30.80;17.35;;;;;;;9.93;100.00;101207.81;1809222;79;21076;-57
2021/04/22 04:16:50;;;;;;;29.25;17.32;;;;;;;9.98;100.00;101207.23;1809104;79;21094;-58
2021/04/22 04:19:18;;;;;;;31.12;18.05;;;;;;;10.02;100.00;101212.92;1809201;79;21387;-57
2021/04/22 04:21:46;;;;;;;29.72;16.45;;;;;;;10.10;100.00;101210.53;1809068;79;20944;-57
2021/04/22 04:24:13;;;;;;;27.48;16.62;;;;;;;10.17;100.00;101218.82;1809172;79;21115;-58
2021/04/22 04:26:41;;;;;;;28.50;17.32;;;;;;;10.22;100.00;101216.89;1807424;79;21012;-57
2021/04/22 04:29:09;;;;;;;29.12;18.00;;;;;;;10.28;100.00;101219.44;1806120;79;21027;-58
2021/04/22 04:31:36;;;;;;;28.45;16.17;;;;;;;10.39;100.00;101228.98;1806008;79;21454;-57
2021/04/22 04:34:04;;;;;;;27.73;17.27;;;;;;;10.48;100.00;101231.44;1806187;79;21681;-57
2021/04/22 04:36:32;;;;;;;29.30;17.48;;;;;;;10.56;100.00;101222.74;1806102;79;21161;-58
2021/04/22 04:39:00;;;;;;;33.28;18.85;;;;;;;10.67;100.00;101225.57;1806023;79;21175;-57
2021/04/22 04:41:27;;;;;;;30.65;18.37;;;;;;;10.76;100.00;101232.04;1806052;79;21119;-58
2021/04/22 04:43:55;;;;;;;32.08;18.02;;;;;;;10.84;100.00;101225.98;1805993;79;21638;-58
2021/04/22 04:46:23;;;;;;;26.77;17.15;;;;;;;10.95;100.00;101232.86;1805923;79;21119;-58
2021/04/22 04:48:51;;;;;;;29.45;17.82;;;;;;;11.08;100.00;101229.36;1803180;79;21122;-58
2021/04/22 04:51:19;;;;;;;28.65;17.55;;;;;;;11.15;100.00;101231.78;1806011;79;21055;-58
2021/04/22 04:53:48;;;;;;;30.10;17.48;;;;;;;11.23;100.00;101232.05;1806039;79;21050;-58
2021/04/22 04:56:17;;;;;;;28.00;17.02;;;;;;;11.33;100.00;101230.82;1803388;79;21701;-57
2021/04/22 04:58:47;;;;;;;34.43;17.12;;;;;;;11.44;100.00;101239.44;1789609;80;21110;-58
2021/04/22 05:01:15;;;;;;;26.87;16.17;;;;;;;11.59;100.00;101235.84;1789788;80;21499;-59
2021/04/22 05:03:44;;;;;;;29.52;15.95;;;;;;;11.74;100.00;101235.84;1789536;80;21093;-58
2021/04/22 05:06:12;;;;;;;29.35;16.02;;;;;;;11.88;100.00;101248.34;1789727;80;21130;-57
2021/04/22 05:08:40;;;;;;;28.67;16.00;;;;;;;12.01;100.00;101251.54;1789634;80;21406;-57
2021/04/22 05:11:09;;;;;;;25.12;14.95;;;;;;;12.16;100.00;101258.23;1789648;80;21062;-57
2021/04/22 05:13:36;;;;;;;29.40;14.83;;;;;;;12.36;100.00;101259.34;1789670;80;22081;-58
2021/04/22 05:16:05;;;;;;;19.40;13.72;;;;;;;12.56;100.00;101266.73;1789692;80;21180;-57
2021/04/22 05:18:33;;;;;;;21.60;14.78;;;;;;;12.79;100.00;101272.22;1789718;80;21009;-58
2021/04/22 05:21:00;;;;;;;22.17;13.60;;;;;;;12.99;100.00;101282.27;1789547;80;21693;-58
2021/04/22 05:23:28;;;;;;;19.95;13.53;;;;;;;13.16;100.00;101285.23;1789649;80;20983;-57
2021/04/22 05:25:56;;;;;;;20.00;13.38;;;;;;;13.28;98.65;101293.77;1789768;80;21102;-56
2021/04/22 05:28:23;;;;;;;23.83;14.83;;;;;;;13.39;95.59;101296.95;1795543;79;21117;-57
2021/04/22 05:30:51;;;;;;;25.80;14.55;;;;;;;13.49;93.74;101297.50;1795442;80;21129;-57
2021/04/22 05:33:19;;;;;;;23.22;13.88;;;;;;;13.60;92.67;101297.09;1795591;80;21348;-57
2021/04/22 05:35:47;;;;;;;23.70;12.93;;;;;;;13.70;90.59;101305.20;1795376;80;21078;-58
2021/04/22 05:38:14;;;;;;;19.15;11.97;;;;;;;13.80;89.40;101301.67;1795529;80;21049;-57
2021/04/22 05:40:43;;;;;;;15.25;10.48;;;;;;;13.96;87.38;101310.51;1795445;80;21101;-57
2021/04/22 05:43:11;;;;;;;23.42;10.08;;;;;;;14.20;84.36;101308.61;1795476;80;21125;-58
2021/04/22 05:45:39;;;;;;;15.38;9.78;;;;;;;14.50;82.15;101313.68;1795987;78;21391;-57
2021/04/22 05:48:07;;;;;;;17.23;8.88;;;;;;;14.79;79.31;101311.56;1794922;80;21042;-57
2021/04/22 05:50:34;;;;;;;11.25;8.55;;;;;;;15.04;77.05;101313.17;1828050;78;21044;-58
2021/04/22 05:53:02;;;;;;;11.12;7.65;;;;;;;15.25;74.27;101319.44;1791773;80;21101;-58
2021/04/22 05:55:30;;;;;;;10.23;7.65;;;;;;;15.41;71.13;101314.66;1791876;80;21106;-57
2021/04/22 05:57:59;;;;;;;13.00;8.20;;;;;;;15.52;69.25;101320.46;1767018;80;21334;-58
2021/04/22 06:00:29;;;;;;;13.13;7.95;;;;;;;15.65;68.04;101316.70;1795543;80;21524;-57
2021/04/22 06:02:57;;;;;;;11.60;8.75;;;;;;;15.75;68.02;101316.64;1795539;80;21060;-58
2021/04/22 06:05:26;;;;;;;12.03;8.60;;;;;;;15.86;68.01;101322.89;1795591;80;22207;-57
2021/04/22 06:07:53;;;;;;;12.47;8.85;;;;;;;15.94;68.20;101317.64;1795549;80;21157;-57
2021/04/22 06:10:22;;;;;;;11.65;8.88;;;;;;;16.05;67.75;101315.27;1795451;80;21707;-57
2021/04/22 06:12:49;;;;;;;12.80;9.55;;;;;;;16.09;67.77;101312.81;1795399;80;21433;-56
2021/04/22 06:15:19;;;;;;;12.23;9.35;;;;;;;16.09;68.05;101314.16;1812062;78;21085;-56
2021/04/22 06:17:47;;;;;;;14.93;11.00;;;;;;;16.09;68.57;101316.01;1763516;80;21197;-59
2021/04/22 06:20:21;;;;;;;13.95;9.68;;;;;;;16.08;69.26;101316.97;1807840;78;21051;-56
2021/04/22 06:22:50;;;;;;;15.98;9.88;;;;;;;16.04;69.46;101316.23;1795280;79;22239;-57
2021/04/22 06:25:21;;;;;;;15.25;10.15;;;;;;;15.99;69.51;101319.14;1796819;79;21188;-57
2021/04/22 06:27:55;;;;;;;14.90;10.80;;;;;;;15.95;69.63;101322.95;1791150;80;21208;-57
2021/04/22 06:30:26;;;;;;;14.38;10.30;;;;;;;15.92;70.19;101320.41;1813016;78;21116;-57
2021/04/22 06:32:54;;;;;;;13.72;11.18;;;;;;;15.92;70.39;101317.70;1795817;78;21541;-57
2021/04/22 06:35:23;;;;;;;15.75;10.75;;;;;;;15.93;71.28;101321.30;1757217;80;21329;-57
2021/04/22 06:37:51;;;;;;;16.73;9.75;;;;;;;15.92;71.70;101315.00;1779205;80;21173;-52
2021/04/22 06:40:20;;;;;;;12.28;9.73;;;;;;;15.86;72.02;101317.48;1764402;80;21178;-52
2021/04/22 06:42:50;;;;;;;13.48;10.15;;;;;;;15.77;72.50;101322.00;1802584;78;21212;-52
2021/04/22 06:45:20;;;;;;;11.22;9.28;;;;;;;15.67;73.23;101325.61;1789070;80;22380;-52
2021/04/22 06:47:47;;;;;;;13.83;9.85;;;;;;;15.62;73.71;101323.61;1821852;78;21707;-52
2021/04/22 06:50:19;;;;;;;13.15;10.25;;;;;;;15.54;74.12;101324.42;1789525;80;21140;-52
2021/04/22 06:52:48;;;;;;;15.25;9.85;;;;;;;15.38;74.47;101327.86;1821603;78;21059;-52
2021/04/22 06:55:21;;;;;;;15.53;10.08;;;;;;;15.25;75.29;101330.70;1789659;80;21458;-52
2021/04/22 06:57:51;;;;;;;18.90;11.15;;;;;;;15.20;75.92;101336.80;1773401;78;21129;-53
2021/04/22 07:00:21;;;;;;;11.97;9.13;;;;;;;15.23;75.73;101332.60;1789455;80;23502;-51
2021/04/22 07:02:50;;;;;;;16.12;9.05;;;;;;;15.24;75.59;101332.52;1785774;80;21486;-52
2021/04/22 07:05:18;;;;;;;13.13;9.48;;;;;;;15.26;75.42;101339.22;1757314;80;21221;-53
2021/04/22 07:07:46;;;;;;;13.80;9.53;;;;;;;15.28;74.97;101341.37;1793246;78;21539;-51
2021/04/22 07:10:14;;;;;;;10.10;7.97;;;;;;;15.32;74.77;101335.77;1780929;80;21142;-51
2021/04/22 07:12:43;;;;;;;11.08;7.90;;;;;;;15.36;74.44;101335.13;1781048;79;21153;-51
2021/04/22 07:15:12;;;;;;;13.00;7.95;;;;;;;15.42;74.15;101330.81;1780847;80;21130;-51
2021/04/22 07:17:41;;;;;;;11.80;8.70;;;;;;;15.49;73.24;101330.52;1780984;79;20994;-53
2021/04/22 07:20:15;;;;;;;15.50;8.60;;;;;;;15.57;72.37;101331.03;1811703;78;21066;-53
2021/04/22 07:22:44;;;;;;;14.10;8.15;;;;;;;15.64;71.26;101338.38;1781730;80;21101;-53
2021/04/22 07:25:13;;;;;;;13.40;8.15;;;;;;;15.65;71.19;101332.92;1822045;78;22689;-53
2021/04/22 07:27:41;;;;;;;11.08;7.45;;;;;;;15.67;71.32;101332.37;1794134;79;21602;-52
2021/04/22 07:30:10;;;;;;;9.90;7.78;;;;;;;15.70;70.32;101337.63;1798594;79;21117;-51
2021/04/22 07:32:38;;;;;;;9.40;7.10;;;;;;;15.72;69.94;101341.13;1798431;79;21133;-52
2021/04/22 07:35:08;;;;;;;8.30;6.70;;;;;;;15.79;69.20;101341.72;1831233;78;21074;-51
2021/04/22 07:37:38;;;;;;;10.30;6.80;;;;;;;15.84;68.08;101339.66;1783239;79;22151;-52
2021/04/22 07:40:08;;;;;;;10.40;6.42;;;;;;;15.97;67.10;101351.30;1778819;80;21078;-51
2021/04/22 07:42:38;;;;;;;9.08;6.30;;;;;;;16.08;66.59;101352.13;1830282;78;20927;-52
2021/04/22 07:45:07;;;;;;;8.35;4.90;;;;;;;16.22;65.21;101348.73;1769103;79;21099;-52
2021/04/22 07:47:35;;;;;;;6.65;5.00;;;;;;;16.32;62.80;101350.91;1798441;79;21046;-52
2021/04/22 07:50:09;;;;;;;6.12;4.08;;;;;;;16.41;61.25;101345.98;1813278;78;21198;-52
2021/04/22 07:52:37;;;;;;;6.42;4.25;;;;;;;16.44;60.53;101346.72;1831235;78;21057;-53
2021/04/22 07:55:09;;;;;;;4.40;3.70;;;;;;;16.50;59.17;101348.24;1769232;79;21071;-53
2021/04/22 07:57:38;;;;;;;6.35;3.55;;;;;;;16.57;58.21;101349.67;1818943;78;21230;-52
2021/04/22 08:00:08;;;;;;;7.70;4.33;;;;;;;16.61;58.13;101351.27;1830555;78;21161;-52
2021/04/22 08:02:37;;;;;;;11.78;4.03;;;;;;;16.67;58.75;101343.78;1816554;78;22271;-52
2021/04/22 08:05:07;;;;;;;5.47;4.28;;;;;;;16.74;58.03;101352.00;1803237;78;21161;-52
2021/04/22 08:07:35;;;;;;;6.58;4.30;;;;;;;16.76;58.44;101341.47;1797585;79;21214;-53
2021/04/22 08:10:12;;;;;;;5.25;3.92;;;;;;;16.78;57.95;101349.53;1797719;79;21183;-53
2021/04/22 08:12:40;;;;;;;5.83;3.30;;;;;;;16.76;57.91;101341.97;1797829;79;21155;-53
2021/04/22 08:15:14;;;;;;;5.50;4.00;;;;;;;16.75;57.37;101347.84;1797966;79;21518;-54
2021/04/22 08:17:45;;;;;;;7.10;4.50;;;;;;;16.75;57.75;101342.43;1754512;80;21123;-52
2021/04/22 08:20:18;;;;;;;5.47;4.00;;;;;;;16.80;58.51;101344.02;1778605;80;21115;-52
2021/04/22 08:22:45;;;;;;;7.03;4.92;;;;;;;16.88;57.64;101349.44;1778524;80;21063;-52
2021/04/22 08:25:21;;;;;;;6.47;4.65;;;;;;;16.88;57.81;101350.79;1798680;79;21129;-52
2021/04/22 08:27:47;;;;;;;8.33;4.58;;;;;;;16.86;57.63;101347.78;1786444;80;21373;-52
2021/04/22 08:30:19;;;;;;;6.37;4.83;;;;;;;16.84;57.46;101349.20;1789676;80;21086;-52
2021/04/22 08:32:54;;;;;;;7.17;5.70;;;;;;;16.83;57.38;101346.09;1873370;76;27770;-53
2021/04/22 08:35:22;;;;;;;8.23;5.47;;;;;;;16.81;57.68;101349.86;1844507;77;28072;-53
2021/04/22 08:37:50;;;;;;;8.95;5.00;;;;;;;16.85;56.92;101348.24;1860410;77;21321;-53
2021/04/22 08:40:19;;;;;;;9.10;5.28;;;;;;;16.84;56.33;101342.43;1860452;77;20984;-52
2021/04/22 08:42:46;;;;;;;10.20;5.08;;;;;;;16.87;56.82;101351.75;1860515;77;21001;-52
2021/04/22 08:45:15;;;;;;;7.83;4.53;;;;;;;16.93;56.01;101352.41;1860457;77;20909;-52
2021/04/22 08:47:44;;;;;;;5.85;4.83;;;;;;;16.95;56.17;101349.14;1860480;77;21035;-52
2021/04/22 08:50:18;;;;;;;7.90;5.12;;;;;;;16.94;55.73;101346.89;1860476;77;21356;-52
2021/04/22 08:52:49;;;;;;;8.83;4.62;;;;;;;16.96;55.22;101350.89;1860464;77;21532;-52
2021/04/22 08:55:20;;;;;;;6.75;3.98;;;;;;;16.99;54.91;101350.26;1860468;77;21516;-53
2021/04/22 08:57:47;;;;;;;5.75;4.12;;;;;;;17.05;54.05;101349.06;1838394;77;21122;-53
2021/04/22 09:00:18;;;;;;;7.00;4.75;;;;;;;17.12;53.97;101346.92;1851226;77;21055;-52
2021/04/22 09:02:46;;;;;;;5.58;3.70;;;;;;;17.15;54.35;101344.93;1851334;77;21426;-52
2021/04/22 09:05:15;;;;;;;4.92;3.55;;;;;;;17.18;53.75;101349.29;1851820;77;20935;-51
2021/04/22 09:07:44;;;;;;;4.85;3.77;;;;;;;17.17;53.91;101348.43;1852089;77;21486;-52
2021/04/22 09:10:15;;;;;;;6.62;4.20;;;;;;;17.17;53.90;101345.72;1852191;77;21035;-52
2021/04/22 09:13:05;;;;;;;4.47;3.65;;;;;;;17.10;54.36;101348.34;1852266;77;21094;-51
2021/04/22 09:15:36;;;;;;;4.05;3.33;;;;;;;17.05;54.22;101343.65;1852343;77;23426;-52
2021/04/22 09:18:16;;;;;;;4.28;3.37;;;;;;;17.00;54.19;101351.15;1852262;77;20935;-53
2021/04/22 09:20:48;;;;;;;6.37;3.72;;;;;;;16.97;54.86;101348.58;1852400;77;21308;-51
2021/04/22 09:23:24;;;;;;;4.37;3.60;;;;;;;16.97;54.78;101345.86;1852349;77;21034;-53
2021/04/22 09:26:04;;;;;;;6.28;3.58;;;;;;;16.96;54.48;101342.77;1852313;77;21066;-52
2021/04/22 09:28:43;;;;;;;4.92;3.35;;;;;;;16.87;54.62;101335.50;1852305;77;21356;-52
2021/04/22 09:31:14;;;;;;;5.55;3.45;;;;;;;16.80;55.07;101334.08;1852089;77;21177;-52
2021/04/22 09:33:41;;;;;;;3.72;3.02;;;;;;;16.79;55.18;101339.55;1820383;77;21153;-53
2021/04/22 09:36:14;;;;;;;4.20;3.30;;;;;;;16.76;55.46;101335.20;1852308;77;21531;-52
2021/04/22 09:38:41;;;;;;;4.03;3.25;;;;;;;16.67;54.96;101331.59;1852340;77;21054;-53
2021/04/22 09:41:15;;;;;;;6.47;3.75;;;;;;;16.56;55.18;101337.09;1849516;77;21456;-51
2021/04/22 09:43:43;;;;;;;4.10;3.47;;;;;;;16.47;55.80;101333.52;1851763;77;21043;-53
2021/04/22 09:46:21;;;;;;;5.28;3.60;;;;;;;16.42;55.70;101317.97;1851699;77;20924;-52
2021/04/22 09:48:48;;;;;;;5.47;3.65;;;;;;;16.33;55.24;101327.42;1851595;77;21121;-52
2021/04/22 09:51:32;;;;;;;4.30;3.47;;;;;;;16.25;55.99;101317.01;1851724;77;21137;-53
2021/04/22 09:54:19;;;;;;;4.40;3.45;;;;;;;16.24;55.17;101326.05;1851662;77;21339;-51
2021/04/22 09:56:53;;;;;;;4.80;3.40;;;;;;;16.24;55.14;101326.05;1845522;77;21609;-53
2021/04/22 09:59:23;;;;;;;8.70;3.37;;;;;;;16.26;54.92;101328.23;1831324;78;20983;-51
2021/04/22 10:02:04;;;;;;;6.67;3.05;;;;;;;16.27;54.82;101325.03;1831013;78;21256;-51
2021/04/22 10:04:40;;;;;;;6.42;3.22;;;;;;;16.23;55.18;101325.65;1831042;78;21057;-52
2021/04/22 10:07:29;;;;;;;4.20;3.25;;;;;;;16.21;55.56;101320.80;1842005;77;21118;-52
2021/04/22 10:10:03;;;;;;;3.77;3.33;;;;;;;16.15;56.71;101323.81;1774291;80;21144;-52
2021/04/22 10:12:33;;;;;;;6.05;3.33;;;;;;;16.10;58.52;101329.94;1791511;78;21191;-52
2021/04/22 10:15:14;;;;;;;5.08;3.70;;;;;;;16.00;59.46;101323.60;1784281;79;20942;-52
2021/04/22 10:17:56;;;;;;;5.87;3.40;;;;;;;15.88;60.49;101329.59;1792795;79;21066;-51
2021/04/22 10:20:27;;;;;;;7.35;4.05;;;;;;;15.74;60.37;101327.06;1759484;79;21198;-51
2021/04/22 10:22:54;;;;;;;5.62;4.25;;;;;;;15.66;60.19;101322.96;1781598;80;21087;-53
2021/04/22 10:25:35;;;;;;;7.47;5.10;;;;;;;15.58;60.26;101323.32;1776812;80;21113;-52
2021/04/22 10:28:08;;;;;;;10.55;6.08;;;;;;;15.54;61.72;101325.77;1795140;79;21059;-57
2021/04/22 10:30:37;;;;;;;8.60;6.35;;;;;;;15.52;63.50;101327.67;1785852;80;21048;-57
2021/04/22 10:33:06;;;;;;;9.18;5.90;;;;;;;15.51;65.93;101326.81;1768714;80;21201;-58
2021/04/22 10:35:37;;;;;;;6.90;5.75;;;;;;;15.46;66.64;101324.31;1791773;80;21044;-57
2021/04/22 10:38:05;;;;;;;9.15;6.17;;;;;;;15.38;67.35;101322.45;1778617;80;21334;-57
2021/04/22 10:40:36;;;;;;;11.68;5.62;;;;;;;15.27;68.40;101312.14;1827785;77;21147;-59
2021/04/22 10:43:06;;;;;;;8.48;6.03;;;;;;;15.14;68.54;101325.33;1787270;80;21125;-58
2021/04/22 10:45:35;;;;;;;8.83;6.50;;;;;;;15.02;69.83;101316.41;1779737;79;21341;-58
2021/04/22 10:48:07;;;;;;;8.20;6.45;;;;;;;14.97;69.91;101318.45;1801317;79;21079;-59
2021/04/22 10:50:39;;;;;;;8.25;6.80;;;;;;;14.87;72.02;101321.54;1788449;79;21058;-59
2021/04/22 10:53:12;;;;;;;10.82;6.55;;;;;;;14.76;72.33;101314.41;1778998;80;22362;-58
2021/04/22 10:55:46;;;;;;;10.23;5.75;;;;;;;14.72;72.22;101311.44;1797862;78;21095;-58
2021/04/22 10:58:25;;;;;;;9.23;5.92;;;;;;;14.67;71.89;101316.10;1784964;80;21206;-58
2021/04/22 11:00:59;;;;;;;8.20;6.20;;;;;;;14.62;72.60;101320.38;1810378;77;21152;-57
2021/04/22 11:03:37;;;;;;;8.73;6.45;;;;;;;14.58;72.71;101319.61;1786833;80;21144;-58
2021/04/22 11:06:14;;;;;;;12.15;6.95;;;;;;;14.54;72.31;101312.59;1786776;80;21502;-57
2021/04/22 11:08:51;;;;;;;9.90;7.53;;;;;;;14.49;72.54;101322.72;1786882;80;21030;-57
2021/04/22 11:11:37;;;;;;;10.18;6.67;;;;;;;14.46;72.61;101307.98;1786828;80;22745;-52
2021/04/22 11:14:15;;;;;;;10.05;6.12;;;;;;;14.41;73.33;101310.00;1785960;80;21099;-53
2021/04/22 11:16:52;;;;;;;8.60;6.80;;;;;;;14.40;74.14;101307.80;1786848;80;21042;-52
2021/04/22 11:19:22;;;;;;;9.73;7.35;;;;;;;14.37;73.21;101302.98;1786829;79;20994;-53
2021/04/22 11:22:19;;;;;;;10.05;7.62;;;;;;;14.32;75.22;101300.48;1786889;80;21070;-52
2021/04/22 11:24:57;;;;;;;10.20;7.70;;;;;;;14.29;75.20;101300.16;1786773;80;21380;-52
2021/04/22 11:27:25;;;;;;;7.60;6.75;;;;;;;14.29;75.16;101297.45;1786851;79;21062;-52